Time;durP1;ratioP1;P1;durP2;ratioP2;P2;SDS_P1;SDS_P2;PMS_P1;PMS_P2;Temp;Humidity;BMP_temperature;BMP_pressure;BME280_temperature;BME280_humidity;BME280_pressure;Samples;Min_cycle;Max_cycle;Signal;HPM_P1;HPM_P2
2023/05/31 00:01:08;;;;;;;6.90;3.00;;;12.80;96.20;;;;;;4993062;28;20129;-87
2023/05/31 00:03:35;;;;;;;5.53;2.88;;;12.80;96.20;;;;;;4993729;28;20469;-88
2023/05/31 00:06:01;;;;;;;4.88;2.63;;;12.70;96.10;;;;;;5006886;28;20038;-87
2023/05/31 00:08:26;;;;;;;5.65;3.05;;;12.70;96.20;;;;;;5003878;28;20046;-87
2023/05/31 00:10:52;;;;;;;5.88;2.75;;;12.70;96.20;;;;;;5009276;28;20049;-87
2023/05/31 00:13:18;;;;;;;6.43;3.03;;;12.70;96.00;;;;;;5007285;28;20046;-86
2023/05/31 00:15:43;;;;;;;6.63;2.90;;;12.60;96.10;;;;;;5004904;28;20126;-87
2023/05/31 00:18:09;;;;;;;6.68;2.78;;;12.60;96.10;;;;;;4996113;28;20461;-87
2023/05/31 00:20:34;;;;;;;7.00;3.28;;;12.60;96.00;;;;;;4991842;28;20050;-87
2023/05/31 00:23:00;;;;;;;6.00;3.08;;;12.60;96.10;;;;;;4995113;28;20413;-87
2023/05/31 00:25:26;;;;;;;6.20;3.17;;;12.50;96.30;;;;;;5012099;28;20042;-87
2023/05/31 00:27:51;;;;;;;5.97;2.88;;;12.50;96.30;;;;;;5007102;28;20413;-87
2023/05/31 00:30:17;;;;;;;5.75;2.90;;;12.50;96.40;;;;;;4993718;28;20046;-87
2023/05/31 00:32:43;;;;;;;6.15;2.97;;;12.40;96.40;;;;;;5011638;28;20046;-87
2023/05/31 00:35:08;;;;;;;5.82;2.88;;;12.40;96.40;;;;;;5010558;28;20034;-87
2023/05/31 00:37:37;;;;;;;7.78;3.03;;;12.40;96.50;;;;;;5003160;28;20387;-87
2023/05/31 00:40:06;;;;;;;5.70;2.90;;;12.40;96.60;;;;;;4993514;28;20057;-87
2023/05/31 00:42:34;;;;;;;7.32;3.60;;;12.30;96.50;;;;;;4993186;28;20054;-88
2023/05/31 00:45:00;;;;;;;5.55;3.30;;;12.40;96.50;;;;;;5009512;28;20096;-87
2023/05/31 00:47:27;;;;;;;7.05;3.40;;;12.30;96.60;;;;;;4995969;28;20506;-87
2023/05/31 00:49:54;;;;;;;6.60;3.10;;;12.30;96.60;;;;;;4996368;28;20038;-87
2023/05/31 00:52:20;;;;;;;6.15;3.33;;;12.30;96.60;;;;;;4992998;28;20411;-86
2023/05/31 00:54:45;;;;;;;5.78;3.13;;;12.30;96.70;;;;;;4997799;28;20054;-87
2023/05/31 00:57:11;;;;;;;5.68;2.85;;;12.20;96.60;;;;;;4992232;28;20049;-87
2023/05/31 00:59:37;;;;;;;5.75;3.17;;;12.20;96.50;;;;;;4998777;28;20047;-87
2023/05/31 01:02:03;;;;;;;4.63;2.80;;;12.20;96.60;;;;;;5008265;28;20064;-87
2023/05/31 01:04:32;;;;;;;6.38;3.13;;;12.20;96.70;;;;;;5000126;28;20050;-87
2023/05/31 01:07:00;;;;;;;6.93;3.38;;;12.10;96.60;;;;;;5001684;28;20608;-88
2023/05/31 01:09:28;;;;;;;6.55;3.63;;;12.20;96.70;;;;;;5003265;28;20430;-87
2023/05/31 01:12:03;;;;;;;7.25;3.60;;;12.10;96.70;;;;;;4995033;28;20413;-87
2023/05/31 01:14:40;;;;;;;6.10;3.47;;;12.10;96.90;;;;;;4997033;28;20054;-87
2023/05/31 01:17:13;;;;;;;6.68;3.35;;;12.00;97.10;;;;;;4997610;28;20049;-87
2023/05/31 01:19:54;;;;;;;8.27;3.60;;;12.10;97.10;;;;;;5007991;28;20065;-86
2023/05/31 01:22:41;;;;;;;5.53;2.92;;;12.00;97.10;;;;;;4996604;28;20038;-87
2023/05/31 01:25:25;;;;;;;6.90;3.28;;;11.90;97.00;;;;;;4988536;28;20061;-87
2023/05/31 01:27:53;;;;;;;6.05;3.22;;;11.90;96.80;;;;;;4995929;28;20448;-87
2023/05/31 01:30:21;;;;;;;6.82;3.55;;;11.90;96.90;;;;;;5006410;28;20498;-86
2023/05/31 01:32:49;;;;;;;6.55;3.13;;;11.90;96.90;;;;;;4995116;28;20422;-87
2023/05/31 01:35:14;;;;;;;6.25;3.63;;;11.90;96.80;;;;;;5005204;28;20077;-87
2023/05/31 01:37:40;;;;;;;7.15;3.50;;;11.80;96.60;;;;;;5015085;28;20493;-86
2023/05/31 01:40:07;;;;;;;6.25;3.22;;;11.90;96.70;;;;;;5003830;28;20105;-87
2023/05/31 01:42:34;;;;;;;6.28;3.55;;;11.80;96.60;;;;;;4993880;28;20039;-86
2023/05/31 01:45:00;;;;;;;6.05;3.53;;;11.80;96.50;;;;;;4999870;28;20387;-87
2023/05/31 01:47:28;;;;;;;6.30;3.42;;;11.70;96.50;;;;;;5008811;28;20537;-87
2023/05/31 01:49:54;;;;;;;6.07;3.70;;;11.70;96.70;;;;;;4998714;28;20046;-87
2023/05/31 01:52:20;;;;;;;7.32;3.55;;;11.70;96.80;;;;;;4996746;28;20039;-87
2023/05/31 01:54:46;;;;;;;6.20;3.53;;;11.70;96.70;;;;;;4994625;28;20077;-86
2023/05/31 01:57:13;;;;;;;7.28;3.75;;;11.60;96.90;;;;;;5010315;28;20140;-87
2023/05/31 01:59:41;;;;;;;6.43;3.60;;;11.60;97.10;;;;;;5007391;28;20050;-87
2023/05/31 02:02:07;;;;;;;5.82;3.60;;;11.60;97.20;;;;;;5006900;28;20034;-87
2023/05/31 02:04:33;;;;;;;6.60;3.58;;;11.60;97.50;;;;;;5010116;28;20096;-87
2023/05/31 02:07:00;;;;;;;6.90;3.78;;;11.60;96.90;;;;;;5013220;28;20042;-87
2023/05/31 02:09:25;;;;;;;6.10;3.47;;;11.50;96.80;;;;;;5014016;28;20081;-86
2023/05/31 02:11:51;;;;;;;7.28;3.72;;;11.50;96.60;;;;;;5014409;28;20490;-87
2023/05/31 02:14:16;;;;;;;5.88;3.33;;;11.50;96.40;;;;;;5000426;28;20801;-87
2023/05/31 02:16:42;;;;;;;6.22;3.70;;;11.40;96.40;;;;;;4994721;28;20042;-88
2023/05/31 02:19:08;;;;;;;6.47;3.50;;;11.40;96.40;;;;;;4994128;28;20148;-87
2023/05/31 02:21:36;;;;;;;6.00;3.60;;;11.30;96.30;;;;;;4991591;28;20092;-88
2023/05/31 02:24:02;;;;;;;7.35;4.00;;;11.40;96.50;;;;;;4993259;28;20085;-87
2023/05/31 02:26:28;;;;;;;6.15;3.70;;;11.30;96.50;;;;;;4994259;28;20046;-86
2023/05/31 02:28:53;;;;;;;7.32;3.65;;;11.30;96.60;;;;;;4993366;28;20044;-87
2023/05/31 02:31:19;;;;;;;6.25;3.50;;;11.20;96.60;;;;;;4996904;28;20156;-87
2023/05/31 02:33:45;;;;;;;6.35;3.65;;;11.20;96.50;;;;;;4995536;28;20121;-88
2023/05/31 02:36:11;;;;;;;5.57;3.60;;;11.20;96.50;;;;;;4993151;28;20141;-88
2023/05/31 02:38:37;;;;;;;7.07;3.97;;;11.20;96.50;;;;;;4995850;28;20042;-87
2023/05/31 02:41:03;;;;;;;6.57;3.65;;;11.20;96.60;;;;;;5014084;28;20887;-87
2023/05/31 02:43:30;;;;;;;5.97;3.70;;;11.10;96.40;;;;;;5012026;28;20141;-87
2023/05/31 02:45:56;;;;;;;7.25;3.58;;;11.10;96.40;;;;;;4999603;28;20548;-87
2023/05/31 02:48:22;;;;;;;7.30;3.67;;;11.00;96.30;;;;;;5001161;28;20406;-88
2023/05/31 02:50:47;;;;;;;6.53;4.10;;;11.00;96.70;;;;;;5011272;28;20038;-87
2023/05/31 02:53:13;;;;;;;6.25;3.63;;;11.00;96.50;;;;;;5012928;28;20406;-87
2023/05/31 02:55:39;;;;;;;7.47;3.70;;;11.00;96.50;;;;;;4996103;28;20402;-88
2023/05/31 02:58:06;;;;;;;6.85;3.90;;;11.00;96.50;;;;;;5013017;28;20410;-87
2023/05/31 03:00:35;;;;;;;6.65;3.65;;;11.00;96.90;;;;;;5000855;28;20046;-87
2023/05/31 03:03:00;;;;;;;7.38;4.20;;;10.90;96.70;;;;;;5012788;28;20054;-87
2023/05/31 03:05:29;;;;;;;8.35;4.45;;;10.90;96.90;;;;;;5010791;28;20121;-88
2023/05/31 03:07:55;;;;;;;6.05;3.90;;;10.90;96.80;;;;;;5013397;28;20058;-88
2023/05/31 03:10:20;;;;;;;7.00;4.07;;;10.90;96.70;;;;;;4999802;28;20861;-88
2023/05/31 03:12:46;;;;;;;6.93;3.90;;;10.90;96.90;;;;;;4992681;28;20089;-87
2023/05/31 03:15:12;;;;;;;7.10;3.80;;;10.90;96.80;;;;;;5002061;28;20048;-87
2023/05/31 03:17:37;;;;;;;6.40;3.88;;;10.90;96.90;;;;;;4991973;28;20053;-87
2023/05/31 03:20:06;;;;;;;7.88;3.88;;;10.80;96.90;;;;;;5004835;28;20044;-88
2023/05/31 03:22:32;;;;;;;6.93;3.90;;;10.80;96.90;;;;;;5011437;28;20045;-88
2023/05/31 03:24:58;;;;;;;6.95;3.80;;;10.80;96.90;;;;;;5007668;28;20038;-87
2023/05/31 03:27:23;;;;;;;7.72;4.18;;;10.80;97.00;;;;;;5012307;28;20502;-87
2023/05/31 03:29:49;;;;;;;6.28;3.95;;;10.80;97.00;;;;;;5007607;28;20030;-87
2023/05/31 03:32:15;;;;;;;8.15;4.25;;;10.80;97.00;;;;;;5009893;28;20402;-87
2023/05/31 03:34:40;;;;;;;7.53;4.30;;;10.80;97.20;;;;;;5003103;28;20504;-88
2023/05/31 03:37:06;;;;;;;6.82;3.88;;;10.80;97.30;;;;;;5000848;28;20041;-88
2023/05/31 03:39:31;;;;;;;6.15;3.95;;;10.80;97.30;;;;;;5010359;28;20393;-87
2023/05/31 03:41:57;;;;;;;7.75;3.88;;;10.70;97.70;;;;;;4993695;28;20050;-86
2023/05/31 03:44:22;;;;;;;7.35;4.03;;;10.70;97.30;;;;;;4997604;28;20136;-87
2023/05/31 03:46:50;;;;;;;7.60;4.30;;;10.70;97.20;;;;;;5005014;28;20049;-87
2023/05/31 03:49:15;;;;;;;7.47;3.95;;;10.70;97.20;;;;;;5012591;28;20046;-87
2023/05/31 03:51:41;;;;;;;7.20;3.92;;;10.70;97.20;;;;;;5000961;28;20474;-87
2023/05/31 03:54:06;;;;;;;6.70;3.85;;;10.70;97.20;;;;;;4995449;28;20042;-87
2023/05/31 03:56:32;;;;;;;7.20;4.00;;;10.60;97.10;;;;;;5007183;28;20064;-86
2023/05/31 03:58:57;;;;;;;7.63;4.15;;;10.60;97.10;;;;;;5011175;28;20076;-87
2023/05/31 04:01:23;;;;;;;6.63;4.20;;;10.70;97.20;;;;;;4995024;28;20474;-86
2023/05/31 04:03:49;;;;;;;7.05;4.10;;;10.60;97.00;;;;;;4994772;28;20050;-86
2023/05/31 04:06:15;;;;;;;7.72;4.03;;;10.60;96.90;;;;;;4993101;28;20092;-86
2023/05/31 04:08:40;;;;;;;7.00;4.00;;;10.60;97.00;;;;;;4995345;28;20042;-86
2023/05/31 04:11:06;;;;;;;7.38;3.80;;;10.60;96.90;;;;;;4999431;28;20461;-87
2023/05/31 04:13:32;;;;;;;8.85;4.15;;;10.50;96.80;;;;;;4992643;28;20042;-88
2023/05/31 04:15:57;;;;;;;7.63;4.50;;;10.60;96.70;;;;;;5004234;28;20548;-86
2023/05/31 04:18:23;;;;;;;7.60;4.22;;;10.50;96.90;;;;;;5012698;28;20070;-85
2023/05/31 04:28:08;;;;;;;9.30;4.63;;;10.40;96.40;;;;;;4935215;29;20055;-86
2023/05/31 04:30:34;;;;;;;7.45;4.05;;;10.40;96.60;;;;;;4932490;29;20070;-85
2023/05/31 04:33:01;;;;;;;9.73;4.70;;;10.50;96.70;;;;;;4933110;29;20052;-86
2023/05/31 04:35:28;;;;;;;9.02;4.78;;;10.40;96.70;;;;;;4984828;28;20058;-85
2023/05/31 04:37:58;;;;;;;7.70;4.60;;;10.50;96.70;;;;;;4992579;28;20427;-86
2023/05/31 04:40:26;;;;;;;7.72;4.47;;;10.50;96.70;;;;;;5009168;28;20053;-87
2023/05/31 04:42:53;;;;;;;8.07;4.53;;;10.50;96.60;;;;;;4998669;28;20052;-87
2023/05/31 04:45:20;;;;;;;7.22;4.32;;;10.40;96.90;;;;;;5001723;28;20081;-87
2023/05/31 04:47:46;;;;;;;7.82;4.45;;;10.50;96.90;;;;;;5008396;28;20042;-85
2023/05/31 04:50:12;;;;;;;13.57;6.57;;;10.50;97.00;;;;;;5001981;28;20046;-85
2023/05/31 04:52:41;;;;;;;8.05;4.40;;;10.50;97.30;;;;;;5016272;28;20081;-84
2023/05/31 04:55:08;;;;;;;7.53;4.65;;;10.50;97.20;;;;;;4998225;28;20046;-86
2023/05/31 04:57:34;;;;;;;6.45;4.38;;;10.50;97.20;;;;;;4996309;28;20054;-85
2023/05/31 05:00:00;;;;;;;8.02;4.80;;;10.50;97.10;;;;;;5002387;28;20050;-85
2023/05/31 05:02:26;;;;;;;9.77;5.25;;;10.50;97.00;;;;;;5007722;28;20045;-85
2023/05/31 05:04:52;;;;;;;8.85;4.60;;;10.50;97.10;;;;;;5011538;28;20084;-86
2023/05/31 05:07:18;;;;;;;9.32;5.13;;;10.50;97.20;;;;;;5003740;28;20074;-87
2023/05/31 05:09:44;;;;;;;8.70;4.57;;;10.60;97.20;;;;;;4994663;28;20501;-87
2023/05/31 05:12:10;;;;;;;11.07;5.43;;;10.60;97.30;;;;;;4993481;28;20526;-87
2023/05/31 05:14:36;;;;;;;8.65;4.60;;;10.60;97.60;;;;;;5002540;28;20402;-84
2023/05/31 05:17:01;;;;;;;7.72;4.68;;;10.60;97.60;;;;;;4997724;28;20057;-85
2023/05/31 05:19:27;;;;;;;11.75;5.63;;;10.60;97.40;;;;;;5007719;28;20414;-84
2023/05/31 05:21:54;;;;;;;12.52;6.07;;;10.70;97.60;;;;;;5015143;28;20049;-84
2023/05/31 05:24:19;;;;;;;8.40;4.85;;;10.70;97.60;;;;;;5013511;28;20486;-85
2023/05/31 05:26:45;;;;;;;11.57;5.25;;;10.70;97.70;;;;;;5001112;28;20045;-85
2023/05/31 05:29:11;;;;;;;8.27;5.22;;;10.80;97.80;;;;;;4994883;28;20409;-86
2023/05/31 05:31:36;;;;;;;11.43;5.43;;;10.80;97.80;;;;;;4998058;28;20422;-83
2023/05/31 05:34:02;;;;;;;10.05;5.07;;;10.80;97.90;;;;;;5000268;28;20077;-84
2023/05/31 05:36:27;;;;;;;11.88;6.30;;;10.90;97.70;;;;;;5007276;28;20125;-84
2023/05/31 05:38:53;;;;;;;11.27;5.63;;;10.90;97.80;;;;;;5011218;28;20076;-83
2023/05/31 05:41:19;;;;;;;10.55;5.97;;;10.90;98.00;;;;;;5007201;28;20030;-84
2023/05/31 05:43:44;;;;;;;11.40;5.28;;;11.00;98.20;;;;;;5007313;28;20061;-85
2023/05/31 05:46:10;;;;;;;7.47;4.70;;;11.00;98.30;;;;;;5010380;28;20502;-85
2023/05/31 05:48:36;;;;;;;15.23;6.72;;;11.00;98.00;;;;;;5007464;28;20124;-86
2023/05/31 05:51:03;;;;;;;9.40;5.05;;;11.10;98.10;;;;;;5012282;28;20050;-83
2023/05/31 05:53:29;;;;;;;11.88;6.03;;;11.10;98.00;;;;;;5005003;28;20084;-84
2023/05/31 05:55:54;;;;;;;11.65;6.82;;;11.20;98.00;;;;;;5005458;28;20074;-84
2023/05/31 05:58:20;;;;;;;13.73;5.82;;;11.20;98.30;;;;;;5008632;28;20054;-85
2023/05/31 06:00:49;;;;;;;13.70;6.80;;;11.30;98.50;;;;;;4998284;28;20029;-85
2023/05/31 06:03:15;;;;;;;12.23;5.78;;;11.30;98.60;;;;;;5002021;28;20100;-84
2023/05/31 06:05:44;;;;;;;12.45;5.78;;;11.40;98.60;;;;;;5013263;28;20121;-84
2023/05/31 06:08:10;;;;;;;9.93;5.20;;;11.40;98.50;;;;;;4994936;28;20047;-84
2023/05/31 06:10:36;;;;;;;11.20;5.50;;;11.40;98.30;;;;;;5011995;28;20061;-86
2023/05/31 06:13:02;;;;;;;13.63;6.68;;;11.40;98.30;;;;;;5011955;28;20096;-85
2023/05/31 06:15:28;;;;;;;14.52;6.75;;;11.50;98.40;;;;;;5009680;28;20402;-84
2023/05/31 06:17:54;;;;;;;12.35;5.90;;;11.50;98.60;;;;;;5002265;28;20059;-87
2023/05/31 06:20:21;;;;;;;9.80;5.15;;;11.60;98.40;;;;;;5007395;28;20037;-86
2023/05/31 06:22:47;;;;;;;12.70;6.80;;;11.70;98.30;;;;;;5012872;28;20042;-86
2023/05/31 06:25:13;;;;;;;11.50;5.65;;;11.70;98.50;;;;;;5013330;28;20104;-84
2023/05/31 06:27:39;;;;;;;12.10;5.80;;;11.80;98.60;;;;;;5013353;28;20034;-84
2023/05/31 06:30:05;;;;;;;12.68;6.68;;;11.80;98.30;;;;;;5006876;28;20042;-83
2023/05/31 06:32:31;;;;;;;13.27;6.75;;;11.90;98.70;;;;;;4993551;28;20038;-83
2023/05/31 06:34:56;;;;;;;13.63;6.60;;;12.00;99.30;;;;;;4992751;28;20054;-84
2023/05/31 06:37:22;;;;;;;14.40;6.45;;;12.20;99.40;;;;;;4995039;28;20034;-84
2023/05/31 06:39:49;;;;;;;13.57;5.97;;;12.30;99.30;;;;;;4993476;28;20526;-85
2023/05/31 06:42:15;;;;;;;15.90;6.68;;;12.40;99.40;;;;;;5013306;28;20046;-84
2023/05/31 06:44:42;;;;;;;12.35;6.22;;;12.50;99.60;;;;;;5005055;28;20054;-85
2023/05/31 06:47:08;;;;;;;11.35;5.38;;;12.60;99.50;;;;;;5008876;28;20116;-85
2023/05/31 06:49:34;;;;;;;11.82;5.72;;;12.70;99.20;;;;;;5011097;28;20038;-85
2023/05/31 06:52:00;;;;;;;11.68;5.65;;;12.80;99.00;;;;;;5002451;28;20041;-87
2023/05/31 06:54:34;;;;;;;13.50;6.07;;;12.80;98.90;;;;;;4999632;28;20053;-86
2023/05/31 06:57:00;;;;;;;12.40;5.18;;;12.90;99.20;;;;;;4994854;28;20130;-87
2023/05/31 06:59:26;;;;;;;9.90;5.28;;;13.00;99.00;;;;;;5006578;28;20121;-86
2023/05/31 07:01:52;;;;;;;12.75;5.57;;;13.10;98.90;;;;;;5003784;28;20050;-86
2023/05/31 07:04:18;;;;;;;9.70;4.85;;;13.30;98.90;;;;;;5006282;28;20046;-87
2023/05/31 07:06:43;;;;;;;13.98;5.22;;;13.40;98.60;;;;;;5007007;28;20049;-87
2023/05/31 07:09:09;;;;;;;10.43;5.03;;;13.40;98.60;;;;;;5005641;28;20046;-87
2023/05/31 07:11:35;;;;;;;11.65;4.90;;;13.60;98.30;;;;;;4991894;28;20046;-87
2023/05/31 07:14:02;;;;;;;10.10;4.45;;;13.60;98.30;;;;;;4992719;28;20057;-86
2023/05/31 07:16:28;;;;;;;11.93;5.45;;;13.80;98.20;;;;;;5004455;28;20052;-86
2023/05/31 07:18:55;;;;;;;8.23;4.60;;;13.80;98.40;;;;;;5012361;28;20180;-86
2023/05/31 07:21:21;;;;;;;8.82;4.55;;;14.00;98.10;;;;;;5006119;28;20093;-87
2023/05/31 07:23:47;;;;;;;9.63;4.80;;;14.00;98.00;;;;;;4991822;28;20073;-88
2023/05/31 07:26:12;;;;;;;10.95;4.70;;;14.20;97.90;;;;;;4998349;28;20041;-86
2023/05/31 07:28:38;;;;;;;9.55;4.60;;;14.40;97.70;;;;;;5006915;28;20173;-86
2023/05/31 07:31:04;;;;;;;11.35;5.18;;;14.40;97.50;;;;;;5003801;28;20141;-86
2023/05/31 07:33:30;;;;;;;12.85;5.30;;;14.50;97.70;;;;;;5010719;28;20041;-86
2023/05/31 07:35:58;;;;;;;10.45;4.43;;;14.60;98.10;;;;;;5006108;28;20097;-86
2023/05/31 07:38:27;;;;;;;12.18;4.63;;;14.80;98.00;;;;;;5003131;28;20081;-86
2023/05/31 07:40:52;;;;;;;9.00;4.10;;;14.80;97.80;;;;;;5000464;28;20041;-85
2023/05/31 07:43:39;;;;;;;11.23;4.68;;;14.90;97.50;;;;;;5006806;28;20168;-87
2023/05/31 07:46:05;;;;;;;14.25;5.03;;;15.10;97.40;;;;;;4992397;28;20104;-87
2023/05/31 07:48:33;;;;;;;13.73;5.10;;;15.20;97.80;;;;;;5005016;28;20038;-87
2023/05/31 07:51:25;;;;;;;9.13;4.38;;;15.30;97.70;;;;;;5001794;28;20121;-86
2023/05/31 07:54:17;;;;;;;12.40;5.00;;;15.40;97.10;;;;;;5000941;28;20050;-87
2023/05/31 07:57:44;;;;;;;12.05;5.75;;;15.50;97.20;;;;;;5011090;28;20053;-85
2023/05/31 08:00:13;;;;;;;7.97;4.22;;;15.60;97.20;;;;;;4976349;28;20076;-86
2023/05/31 08:02:42;;;;;;;13.27;4.95;;;15.80;96.90;;;;;;4993998;28;20054;-87
2023/05/31 08:05:08;;;;;;;12.85;5.05;;;15.90;96.70;;;;;;4997295;28;20057;-86
2023/05/31 08:07:37;;;;;;;12.73;5.25;;;16.00;96.70;;;;;;4993170;28;20084;-86
2023/05/31 08:11:01;;;;;;;14.82;4.95;;;16.10;96.60;;;;;;5003739;28;20367;-86
2023/05/31 08:17:41;;;;;;;;;;;16.30;96.40;;;;;;4991883;28;20046;-87
2023/05/31 08:20:28;;;;;;;10.13;4.47;;;16.40;96.50;;;;;;4989151;28;20289;-85
2023/05/31 08:23:03;;;;;;;7.88;3.80;;;16.60;96.30;;;;;;5002484;28;20097;-86
2023/05/31 08:25:29;;;;;;;9.30;3.85;;;16.70;96.00;;;;;;5015576;28;20123;-86
2023/05/31 08:27:55;;;;;;;8.75;3.63;;;16.80;95.70;;;;;;5001622;28;20041;-87
2023/05/31 08:30:20;;;;;;;11.40;4.20;;;16.90;95.60;;;;;;5006750;28;20054;-86
2023/05/31 08:33:28;;;;;;;;;;;;;;;;;;;;;
2023/05/31 08:36:03;;;;;;;9.15;3.92;;;17.10;95.40;;;;;;5120086;23;20058;-86
2023/05/31 08:38:55;;;;;;;11.77;4.30;;;17.20;95.40;;;;;;5095537;28;20043;-87
2023/05/31 08:45:00;;;;;;;;;;;17.40;94.40;;;;;;5097309;28;20052;-87
2023/05/31 08:47:50;;;;;;;9.85;3.72;;;17.50;94.90;;;;;;5002634;28;19922;-87
2023/05/31 08:50:53;;;;;;;;;;;;;;;;;;;;;
2023/05/31 08:56:59;;;;;;;13.20;3.95;;;17.90;94.20;;;;;;5027951;28;20071;-86
2023/05/31 08:59:25;;;;;;;8.90;4.07;;;18.00;93.70;;;;;;5089970;28;20066;-85
2023/05/31 09:01:52;;;;;;;10.32;4.00;;;18.20;93.30;;;;;;5096211;28;20084;-87
2023/05/31 09:04:19;;;;;;;10.68;4.07;;;18.30;93.00;;;;;;5079642;28;20039;-87
2023/05/31 09:06:46;;;;;;;9.43;3.72;;;18.40;93.40;;;;;;5099281;28;20055;-88
2023/05/31 09:09:11;;;;;;;9.88;3.40;;;18.40;93.60;;;;;;5110848;28;20129;-88
2023/05/31 09:11:39;;;;;;;10.77;3.85;;;18.60;93.70;;;;;;5091331;28;20475;-89
2023/05/31 09:14:05;;;;;;;11.65;4.25;;;18.60;93.80;;;;;;5091398;28;20105;-88
2023/05/31 09:16:31;;;;;;;8.55;3.85;;;18.80;93.80;;;;;;5110875;28;20031;-88
2023/05/31 09:19:02;;;;;;;7.43;3.45;;;18.80;93.70;;;;;;5108276;28;20039;-89
2023/05/31 09:21:28;;;;;;;10.63;3.83;;;18.90;93.50;;;;;;5089683;28;20077;-87
2023/05/31 09:23:59;;;;;;;8.00;3.45;;;19.00;93.30;;;;;;5082690;28;20047;-89
2023/05/31 09:26:25;;;;;;;10.32;4.15;;;19.20;93.50;;;;;;5084668;28;20487;-89
2023/05/31 09:28:55;;;;;;;6.65;3.20;;;19.30;92.90;;;;;;5086272;28;20090;-88
2023/05/31 09:31:21;;;;;;;11.00;3.97;;;19.30;93.30;;;;;;5084559;28;20097;-89
2023/05/31 09:33:48;;;;;;;6.47;3.25;;;19.40;92.60;;;;;;5083185;28;20399;-88
2023/05/31 09:36:29;;;;;;;9.40;3.78;;;19.50;92.60;;;;;;5106079;28;20039;-88
2023/05/31 09:39:05;;;;;;;7.22;3.78;;;19.60;93.00;;;;;;5081841;28;20036;-88
2023/05/31 09:41:32;;;;;;;10.48;3.95;;;19.70;92.70;;;;;;5096350;28;20062;-88
2023/05/31 09:43:58;;;;;;;9.93;3.55;;;19.80;91.80;;;;;;5086265;28;20055;-88
2023/05/31 09:46:27;;;;;;;11.10;3.78;;;19.80;91.70;;;;;;5100268;28;20048;-87
2023/05/31 09:49:06;;;;;;;10.15;3.60;;;19.90;91.10;;;;;;5102657;28;20517;-86
2023/05/31 09:51:33;;;;;;;7.75;3.38;;;20.10;91.90;;;;;;5091608;28;20067;-87
2023/05/31 09:54:01;;;;;;;8.35;3.83;;;20.20;91.50;;;;;;5084788;28;20042;-89
2023/05/31 09:56:28;;;;;;;9.38;3.40;;;20.20;90.40;;;;;;5100522;28;20036;-91
2023/05/31 09:58:57;;;;;;;6.95;3.20;;;20.30;90.40;;;;;;5109935;28;20042;-90
2023/05/31 10:01:23;;;;;;;9.38;3.65;;;20.40;91.70;;;;;;5092699;28;20040;-88
2023/05/31 10:03:50;;;;;;;9.23;4.05;;;20.40;91.60;;;;;;5084529;28;20048;-91
2023/05/31 10:06:17;;;;;;;8.68;3.63;;;20.60;91.70;;;;;;5085631;28;20048;-88
2023/05/31 10:09:07;;;;;;;7.05;3.47;;;20.60;92.30;;;;;;5113639;28;20062;-88
2023/05/31 10:11:37;;;;;;;8.85;3.20;;;20.70;92.50;;;;;;5091617;28;20048;-88
2023/05/31 10:14:12;;;;;;;7.18;3.13;;;20.90;92.50;;;;;;5095612;28;20054;-90
2023/05/31 10:16:50;;;;;;;10.98;3.58;;;20.90;92.60;;;;;;5094300;28;20055;-89
2023/05/31 10:19:39;;;;;;;12.48;3.88;;;21.00;90.90;;;;;;5108153;28;20513;-91
2023/05/31 10:22:07;;;;;;;7.60;3.47;;;21.00;89.90;;;;;;5096514;28;20050;-88
2023/05/31 10:25:00;;;;;;;9.15;3.95;;;21.10;90.70;;;;;;5096119;28;20047;-89
2023/05/31 10:27:31;;;;;;;10.70;3.50;;;21.10;90.30;;;;;;5086697;28;20043;-89
2023/05/31 10:30:04;;;;;;;8.27;3.17;;;21.10;91.30;;;;;;5093037;28;20081;-89
2023/05/31 10:32:33;;;;;;;6.35;2.97;;;21.20;91.10;;;;;;5086257;28;20387;-90
2023/05/31 10:35:00;;;;;;;9.98;3.70;;;21.20;92.00;;;;;;5091188;28;20487;-88
2023/05/31 10:37:27;;;;;;;9.48;3.80;;;21.30;91.80;;;;;;5077781;28;20039;-89
2023/05/31 10:40:16;;;;;;;8.43;3.38;;;21.40;92.00;;;;;;5095474;28;20043;-90
2023/05/31 10:42:42;;;;;;;12.35;4.00;;;21.40;91.60;;;;;;5093739;28;20105;-88
2023/05/31 10:45:18;;;;;;;8.20;3.28;;;21.50;91.30;;;;;;5092913;28;20079;-89
2023/05/31 10:47:59;;;;;;;10.48;3.80;;;21.50;91.50;;;;;;5078914;28;20044;-90
2023/05/31 10:50:25;;;;;;;14.68;4.20;;;21.50;90.40;;;;;;5093287;28;20491;-91
2023/05/31 10:52:51;;;;;;;10.30;3.78;;;21.50;89.70;;;;;;5094560;28;20051;-88
2023/05/31 10:55:19;;;;;;;10.52;3.47;;;21.50;90.10;;;;;;5089160;28;20508;-88
2023/05/31 10:57:55;;;;;;;9.13;3.88;;;21.50;90.40;;;;;;5088358;28;20036;-88
2023/05/31 11:00:25;;;;;;;15.60;4.10;;;21.50;90.20;;;;;;5091453;28;20052;-88
2023/05/31 11:02:58;;;;;;;12.70;3.67;;;21.50;89.10;;;;;;5101560;28;20380;-89
2023/05/31 11:05:26;;;;;;;12.52;4.10;;;21.50;90.60;;;;;;5112681;28;20134;-89
2023/05/31 11:07:53;;;;;;;14.23;4.80;;;21.60;89.00;;;;;;5089155;28;20044;-88
2023/05/31 11:10:28;;;;;;;12.80;4.38;;;21.50;88.40;;;;;;5110555;28;20044;-87
2023/05/31 11:12:57;;;;;;;11.88;4.20;;;21.40;87.80;;;;;;5084439;28;20053;-87
2023/05/31 11:15:22;;;;;;;11.10;3.92;;;21.40;88.30;;;;;;5084754;28;20093;-87
2023/05/31 11:17:55;;;;;;;9.95;3.78;;;21.40;90.80;;;;;;5092982;28;20051;-87
2023/05/31 11:20:22;;;;;;;11.27;4.05;;;21.50;91.00;;;;;;5094808;28;20039;-87
2023/05/31 11:23:17;;;;;;;9.63;3.50;;;21.50;91.10;;;;;;5103936;28;20049;-87
2023/05/31 11:25:43;;;;;;;10.60;4.78;;;21.60;91.70;;;;;;5083066;28;20040;-87
2023/05/31 11:28:10;;;;;;;8.32;3.70;;;21.70;91.10;;;;;;5103759;28;20392;-88
2023/05/31 11:30:37;;;;;;;14.90;4.45;;;21.80;92.10;;;;;;5109953;28;20039;-89
2023/05/31 11:33:13;;;;;;;15.27;4.47;;;21.90;90.60;;;;;;5111260;28;20190;-89
2023/05/31 11:35:39;;;;;;;11.38;4.95;;;21.90;90.60;;;;;;5107524;28;20058;-88
2023/05/31 11:38:06;;;;;;;11.38;4.15;;;21.90;90.30;;;;;;5090915;28;20044;-86
2023/05/31 11:40:32;;;;;;;9.98;4.40;;;21.90;91.00;;;;;;5093749;28;20075;-87
2023/05/31 11:43:06;;;;;;;10.73;4.00;;;22.00;90.90;;;;;;5091396;28;20036;-88
2023/05/31 11:45:33;;;;;;;9.15;4.07;;;22.10;91.60;;;;;;5104725;28;20036;-87
2023/05/31 11:48:04;;;;;;;9.60;4.47;;;22.20;91.20;;;;;;5108957;28;20036;-88
2023/05/31 11:50:31;;;;;;;10.18;4.63;;;22.20;90.60;;;;;;5094151;28;20078;-90
2023/05/31 11:52:59;;;;;;;11.25;4.95;;;22.40;91.40;;;;;;5087535;28;20047;-89
2023/05/31 11:55:32;;;;;;;9.95;4.78;;;22.40;90.00;;;;;;5079886;28;20047;-88
2023/05/31 11:57:58;;;;;;;12.43;4.75;;;22.50;90.80;;;;;;5111523;28;20043;-90
2023/05/31 12:00:25;;;;;;;11.02;4.90;;;22.50;91.20;;;;;;5109677;28;20114;-89
2023/05/31 12:02:53;;;;;;;9.95;4.85;;;22.50;87.70;;;;;;5108423;28;20080;-92
2023/05/31 12:05:48;;;;;;;10.20;4.93;;;22.50;87.40;;;;;;5090720;28;20051;-91
2023/05/31 12:08:16;;;;;;;12.95;5.25;;;22.60;87.50;;;;;;5058745;28;20090;-90
2023/05/31 12:10:42;;;;;;;9.93;4.75;;;22.50;82.10;;;;;;5084640;28;20040;-89
2023/05/31 12:13:08;;;;;;;10.48;5.10;;;22.50;87.50;;;;;;5088796;28;20085;-88
2023/05/31 12:15:34;;;;;;;8.63;4.30;;;22.60;88.30;;;;;;5091474;28;20108;-88
2023/05/31 12:18:00;;;;;;;11.93;4.80;;;22.70;90.10;;;;;;5113310;28;20122;-88
2023/05/31 12:20:53;;;;;;;11.98;4.93;;;22.70;88.70;;;;;;5090548;28;20047;-89
2023/05/31 12:23:22;;;;;;;12.13;5.20;;;22.70;88.00;;;;;;5084675;28;20081;-89
2023/05/31 12:25:49;;;;;;;13.45;5.18;;;22.80;88.10;;;;;;5090562;28;20087;-88
2023/05/31 12:28:22;;;;;;;10.65;4.72;;;22.80;84.50;;;;;;5083511;28;20094;-89
2023/05/31 12:31:07;;;;;;;8.70;4.30;;;22.80;86.10;;;;;;5092003;28;20052;-90
2023/05/31 12:33:34;;;;;;;9.82;4.85;;;22.80;88.90;;;;;;5093755;28;20043;-91
2023/05/31 12:36:03;;;;;;;9.43;4.47;;;22.80;83.90;;;;;;5108043;28;20441;-89
2023/05/31 12:38:32;;;;;;;9.48;4.72;;;22.80;81.30;;;;;;5092399;28;20078;-90
2023/05/31 12:41:04;;;;;;;10.32;4.78;;;22.80;84.60;;;;;;5091863;28;20032;-89
2023/05/31 12:43:30;;;;;;;9.43;4.53;;;22.70;83.30;;;;;;5091350;28;20052;-89
2023/05/31 12:45:56;;;;;;;11.10;4.30;;;22.80;85.80;;;;;;5101641;28;20040;-89
2023/05/31 12:48:27;;;;;;;11.32;4.30;;;22.80;86.60;;;;;;5095034;28;20051;-88
2023/05/31 12:50:59;;;;;;;8.75;4.20;;;22.90;84.40;;;;;;5094818;28;20123;-88
2023/05/31 12:53:25;;;;;;;9.80;4.27;;;23.00;88.40;;;;;;5103085;28;20032;-89
2023/05/31 12:55:51;;;;;;;7.75;3.97;;;23.00;88.10;;;;;;5112436;28;20387;-88
2023/05/31 12:58:17;;;;;;;7.65;3.72;;;23.00;89.40;;;;;;5113424;28;20031;-89
2023/05/31 13:00:44;;;;;;;7.55;3.72;;;23.10;90.00;;;;;;5112967;28;20480;-88
2023/05/31 13:03:13;;;;;;;7.15;3.50;;;23.20;90.30;;;;;;5094317;28;20425;-88
2023/05/31 13:05:39;;;;;;;10.07;3.67;;;23.30;90.00;;;;;;5112771;28;20051;-87
2023/05/31 13:08:05;;;;;;;8.88;3.88;;;23.40;90.10;;;;;;5115286;28;20476;-88
2023/05/31 13:10:30;;;;;;;7.85;3.70;;;23.40;90.30;;;;;;5116904;28;20040;-87
2023/05/31 13:12:56;;;;;;;10.23;3.53;;;23.50;90.10;;;;;;5098046;28;20097;-86